»·PEaware :: ACA128 CYVR-KSAN

ACA128 :: CYVR-KSAN

FLIGHT INFORMATION

Flight Status: Arrived
Operator:
Air Canada
More flights by this operator :: More flights under this callsign
Pilot: Konrad W. (32064)
Aircraft: AIRBUS A320
(A320)
More flights by this aircraft type
Origin: CYVR Vancouver Intl
Canada
Destination: KSAN San Diego Intl-Lindbergh
United States
More flights between these airports :: More routes between these airports
Route: YVR1 CFKFL J5 EHF HUULK COMIX2
File this flight plan on PilotEdge
Remarks:
Altitude:
(Current/Filed)
39,000ft
Speed:
(Current/Filed)
450kts
Departed: 19-Dec-20 04:34 PM
Arrived: 19-Dec-20 07:16 PM
Distance/Time
Traveled:
1023nm/2:42
Distance/Time
To Go:
Arrived

Flight Plot

Page will automatically refresh every two minutes.

Flight plan parsing failed; only flown route is shown


Map Options




Map Legend


Flown Route
Filed Route
Departure Airport
Arrival Airport
Navaid (VOR, NDB)
Fix

Horizontal Profiles

Position Reports

Time Latitude Longitude Heading Altitude Ground
Speed
19-Dec-20 16:15 49.195715 -123.186084 99 22ft 0kts
19-Dec-20 16:16 49.195715 -123.186084 99 22ft 0kts
19-Dec-20 16:17 49.195715 -123.186084 99 22ft 0kts
19-Dec-20 16:18 49.195715 -123.186084 99 22ft 0kts
19-Dec-20 16:19 49.195715 -123.186084 99 22ft 0kts
19-Dec-20 16:20 49.195715 -123.186084 99 22ft 0kts
19-Dec-20 16:21 49.195715 -123.186084 99 22ft 0kts
19-Dec-20 16:22 49.195715 -123.186084 99 22ft 0kts
19-Dec-20 16:23 49.195715 -123.186084 99 22ft 0kts
19-Dec-20 16:24 49.195716 -123.186091 99 22ft 0kts
19-Dec-20 16:25 49.195912 -123.186639 168 22ft 0kts
19-Dec-20 16:26 49.194209 -123.187153 155 22ft 19kts
19-Dec-20 16:27 49.189363 -123.183119 99 22ft 9kts
19-Dec-20 16:28 49.188736 -123.177323 99 22ft 32kts
19-Dec-20 16:29 49.187080 -123.163170 112 22ft 22kts
19-Dec-20 16:30 49.186096 -123.159258 100 22ft 0kts
19-Dec-20 16:31 49.184511 -123.158972 276 25ft 1kts
19-Dec-20 16:32 49.184553 -123.159453 279 25ft 26kts
19-Dec-20 16:34 49.191241 -123.221517 280 837ft 221kts
19-Dec-20 16:35 49.184773 -123.310237 223 3237ft 228kts
19-Dec-20 16:36 49.125673 -123.299784 150 5741ft 246kts
19-Dec-20 16:37 49.066562 -123.239301 153 8221ft 275kts
19-Dec-20 16:38 48.999262 -123.178803 156 10715ft 291kts
19-Dec-20 16:39 48.928190 -123.114729 156 13209ft 305kts
19-Dec-20 16:40 48.852169 -123.046465 156 15185ft 349kts
19-Dec-20 16:41 48.766252 -122.975175 167 17176ft 357kts
19-Dec-20 16:42 48.671672 -122.928800 171 19184ft 367kts
19-Dec-20 16:43 48.573059 -122.881857 171 21039ft 384kts
19-Dec-20 16:44 48.478390 -122.834980 170 22431ft 396kts
19-Dec-20 16:45 48.373438 -122.781958 170 23901ft 411kts
19-Dec-20 16:46 48.265805 -122.726528 171 25541ft 419kts
19-Dec-20 16:47 48.155300 -122.669684 171 27234ft 427kts
19-Dec-20 16:48 48.041688 -122.612135 172 28928ft 442kts
19-Dec-20 16:49 47.924502 -122.553233 172 30619ft 454kts
19-Dec-20 16:50 47.804690 -122.493238 172 32289ft 459kts
19-Dec-20 16:51 47.685001 -122.433752 172 33917ft 461kts
19-Dec-20 16:52 47.563574 -122.373831 170 35154ft 471kts
19-Dec-20 16:53 47.439840 -122.313608 171 36153ft 482kts
19-Dec-20 16:54 47.311631 -122.260924 172 37155ft 490kts
19-Dec-20 16:55 47.182337 -122.209847 172 38137ft 498kts
19-Dec-20 16:56 47.048457 -122.157081 171 39015ft 509kts
19-Dec-20 16:57 46.911749 -122.102779 171 39091ft 504kts
19-Dec-20 16:58 46.777513 -122.050049 171 39109ft 502kts
19-Dec-20 16:59 46.644561 -121.998540 172 39311ft 502kts
19-Dec-20 16:59 46.532458 -121.955432 172 39291ft 498kts
19-Dec-20 17:00 46.398571 -121.904059 171 39324ft 504kts
19-Dec-20 17:02 46.242992 -121.844733 172 39312ft 503kts
19-Dec-20 17:02 46.130969 -121.802141 171 39311ft 501kts
19-Dec-20 17:04 45.974830 -121.742872 170 39279ft 504kts
19-Dec-20 17:04 45.862592 -121.700633 170 39293ft 505kts
19-Dec-20 17:05 45.728326 -121.650473 170 39265ft 504kts
19-Dec-20 17:07 45.571049 -121.591385 170 39271ft 506kts
19-Dec-20 17:07 45.458237 -121.549388 170 39290ft 506kts
19-Dec-20 17:09 45.301059 -121.491355 170 39259ft 506kts
19-Dec-20 17:09 45.187820 -121.449925 170 39251ft 503kts
19-Dec-20 17:10 45.053222 -121.400774 170 39270ft 505kts
19-Dec-20 17:12 44.895884 -121.343539 169 39291ft 506kts
19-Dec-20 17:12 44.783302 -121.302735 170 39288ft 507kts
19-Dec-20 17:14 44.625649 -121.245989 169 39327ft 507kts
19-Dec-20 17:14 44.512401 -121.205380 169 39327ft 507kts
19-Dec-20 17:15 44.376513 -121.156848 169 39309ft 509kts
19-Dec-20 17:16 44.240186 -121.108348 169 39271ft 511kts
19-Dec-20 17:17 44.103642 -121.060116 169 39285ft 513kts
19-Dec-20 17:18 43.966734 -121.012048 169 39316ft 516kts
19-Dec-20 17:19 43.828878 -120.963844 169 39367ft 516kts
19-Dec-20 17:20 43.690792 -120.915816 169 39379ft 517kts
19-Dec-20 17:21 43.552400 -120.867843 168 39383ft 518kts
19-Dec-20 17:22 43.413628 -120.820019 168 39409ft 518kts
19-Dec-20 17:23 43.274792 -120.772269 168 39423ft 518kts
19-Dec-20 17:24 43.136649 -120.724944 168 39441ft 518kts
19-Dec-20 17:25 42.997618 -120.677545 168 39436ft 517kts
19-Dec-20 17:26 42.859169 -120.630577 167 39461ft 517kts
19-Dec-20 17:27 42.720753 -120.583828 167 39473ft 518kts
19-Dec-20 17:28 42.581931 -120.537102 167 39478ft 517kts
19-Dec-20 17:29 42.443644 -120.492479 168 39460ft 515kts
19-Dec-20 17:30 42.304549 -120.450474 168 39439ft 515kts
19-Dec-20 17:31 42.165827 -120.409186 168 39447ft 513kts
19-Dec-20 17:32 42.027950 -120.368356 168 39448ft 512kts
19-Dec-20 17:33 41.890019 -120.327598 168 39451ft 511kts
19-Dec-20 17:34 41.752912 -120.287175 168 39451ft 509kts
19-Dec-20 17:35 41.615650 -120.246914 167 39462ft 507kts
19-Dec-20 17:36 41.478455 -120.206818 168 39449ft 506kts
19-Dec-20 17:37 41.342558 -120.167232 168 39454ft 504kts
19-Dec-20 17:38 41.206564 -120.127790 168 39478ft 504kts
19-Dec-20 17:39 41.071302 -120.088764 168 39477ft 501kts
19-Dec-20 17:40 40.936058 -120.049984 167 39485ft 500kts
19-Dec-20 17:41 40.800933 -120.011353 167 39482ft 500kts
19-Dec-20 17:42 40.666021 -119.973013 167 39472ft 497kts
19-Dec-20 17:43 40.532611 -119.935111 167 39497ft 495kts
19-Dec-20 17:44 40.400718 -119.897684 168 39476ft 466kts
19-Dec-20 17:45 40.279417 -119.863510 168 39501ft 449kts
19-Dec-20 17:46 40.157719 -119.829430 168 39507ft 450kts
19-Dec-20 17:47 40.036698 -119.795676 168 39509ft 449kts
19-Dec-20 17:48 39.915776 -119.762081 169 39496ft 446kts
19-Dec-20 17:49 39.795875 -119.728727 169 39488ft 444kts
19-Dec-20 17:50 39.676697 -119.695704 170 39487ft 431kts
19-Dec-20 17:51 39.565510 -119.665256 172 39458ft 410kts
19-Dec-20 17:52 39.452993 -119.644358 176 39447ft 410kts
19-Dec-20 17:53 39.340983 -119.627655 177 39445ft 409kts
19-Dec-20 17:54 39.229478 -119.611554 178 39469ft 406kts
19-Dec-20 17:55 39.118103 -119.595551 178 39481ft 404kts
19-Dec-20 17:56 39.009910 -119.579969 181 39486ft 391kts
19-Dec-20 17:57 38.901807 -119.564922 181 39480ft 394kts
19-Dec-20 17:58 38.793685 -119.549571 181 39455ft 395kts
19-Dec-20 17:59 38.686103 -119.534273 181 39426ft 394kts
19-Dec-20 18:00 38.577936 -119.518936 180 39399ft 393kts
19-Dec-20 18:01 38.469283 -119.503563 180 39413ft 397kts
19-Dec-20 18:02 38.360384 -119.488251 180 39386ft 397kts
19-Dec-20 18:03 38.251446 -119.472931 180 39384ft 398kts
19-Dec-20 18:04 38.141883 -119.457548 179 39419ft 401kts
19-Dec-20 18:05 38.032164 -119.441981 179 39382ft 400kts
19-Dec-20 18:06 37.922731 -119.426506 179 39468ft 397kts
19-Dec-20 18:07 37.813028 -119.411185 179 39539ft 399kts
19-Dec-20 18:08 37.703901 -119.396020 180 39548ft 398kts
19-Dec-20 18:09 37.594569 -119.380939 180 39552ft 397kts
19-Dec-20 18:10 37.486381 -119.365958 180 39542ft 396kts
19-Dec-20 18:11 37.377730 -119.350972 180 39545ft 392kts
19-Dec-20 18:12 37.270479 -119.336348 179 39445ft 395kts
19-Dec-20 18:14 37.144974 -119.319154 181 39406ft 388kts
19-Dec-20 18:14 37.056589 -119.307291 180 39392ft 390kts
19-Dec-20 18:15 36.948952 -119.292655 180 39409ft 390kts
19-Dec-20 18:16 36.841792 -119.278067 180 39399ft 391kts
19-Dec-20 18:17 36.734617 -119.263573 180 39385ft 391kts
19-Dec-20 18:18 36.626940 -119.249061 179 39377ft 392kts
19-Dec-20 18:19 36.519025 -119.234581 179 39406ft 396kts
19-Dec-20 18:20 36.410354 -119.219987 179 39433ft 398kts
19-Dec-20 18:21 36.299613 -119.205281 179 39440ft 419kts
19-Dec-20 18:22 36.178944 -119.189450 178 39439ft 458kts
19-Dec-20 18:23 36.050451 -119.172329 178 39435ft 470kts
19-Dec-20 18:24 35.921464 -119.154996 178 39438ft 472kts
19-Dec-20 18:25 35.791631 -119.137745 178 39437ft 473kts
19-Dec-20 18:26 35.661797 -119.120609 178 39440ft 475kts
19-Dec-20 18:27 35.531887 -119.103521 178 39436ft 471kts
19-Dec-20 18:28 35.407084 -119.055006 160 39418ft 480kts
19-Dec-20 18:29 35.287556 -118.988733 158 39417ft 472kts
19-Dec-20 18:30 35.169479 -118.922502 158 38647ft 466kts
19-Dec-20 18:31 35.055837 -118.859144 158 37169ft 446kts
19-Dec-20 18:32 34.944493 -118.797616 158 35691ft 440kts
19-Dec-20 18:33 34.834907 -118.737303 158 34201ft 430kts
19-Dec-20 18:34 34.727607 -118.678320 157 32708ft 421kts
19-Dec-20 18:35 34.623305 -118.620928 156 31225ft 411kts
19-Dec-20 18:36 34.524418 -118.555712 151 29692ft 412kts
19-Dec-20 18:37 34.427940 -118.487449 150 27999ft 397kts
19-Dec-20 18:38 34.334414 -118.420895 150 26318ft 404kts
19-Dec-20 18:39 34.238464 -118.352768 150 24633ft 398kts
19-Dec-20 18:40 34.144911 -118.286473 150 22940ft 387kts
19-Dec-20 18:41 34.053909 -118.222281 150 21252ft 378kts
19-Dec-20 18:42 33.969721 -118.163068 149 19657ft 371kts
19-Dec-20 18:43 33.884414 -118.103141 149 18190ft 363kts
19-Dec-20 18:44 33.798037 -118.044576 150 16825ft 356kts
19-Dec-20 18:45 33.712558 -117.987876 150 15834ft 353kts
19-Dec-20 18:46 33.628236 -117.932167 150 15065ft 348kts
19-Dec-20 18:47 33.544059 -117.876260 149 14995ft 350kts
19-Dec-20 18:48 33.460970 -117.818614 145 14991ft 350kts
19-Dec-20 18:49 33.385421 -117.746805 138 14991ft 349kts
19-Dec-20 18:50 33.313171 -117.669960 137 14973ft 349kts
19-Dec-20 18:51 33.241285 -117.593166 137 14790ft 350kts
19-Dec-20 18:52 33.169891 -117.518031 137 13493ft 333kts
19-Dec-20 18:53 33.099208 -117.451799 142 12056ft 318kts
19-Dec-20 18:54 33.030982 -117.394699 143 10565ft 288kts
19-Dec-20 18:55 32.968058 -117.342246 143 9206ft 266kts
19-Dec-20 18:56 32.909488 -117.293298 143 8734ft 263kts
19-Dec-20 18:57 32.851922 -117.245418 143 7519ft 250kts
19-Dec-20 18:58 32.793369 -117.211388 144 7031ft 228kts
19-Dec-20 18:59 32.759838 -117.149563 100 6219ft 228kts
19-Dec-20 19:00 32.753596 -117.077428 92 6027ft 220kts
19-Dec-20 19:01 32.750306 -117.005706 92 6012ft 220kts
19-Dec-20 19:02 32.747263 -116.933716 92 6004ft 221kts
19-Dec-20 19:03 32.744569 -116.861331 91 5995ft 220kts
19-Dec-20 19:04 32.742292 -116.789304 92 5999ft 219kts
19-Dec-20 19:05 32.740125 -116.717282 92 5994ft 219kts
19-Dec-20 19:06 32.699041 -116.685104 212 5337ft 240kts
19-Dec-20 19:07 32.686315 -116.753788 280 5012ft 214kts
19-Dec-20 19:08 32.695911 -116.820087 277 4991ft 206kts
19-Dec-20 19:09 32.693969 -116.887257 274 4846ft 210kts
19-Dec-20 19:10 32.688316 -116.950798 241 4323ft 206kts
19-Dec-20 19:11 32.689425 -117.016308 290 3186ft 206kts
19-Dec-20 19:12 32.706032 -117.076023 285 2176ft 184kts
19-Dec-20 19:13 32.718667 -117.130330 293 1238ft 167kts
19-Dec-20 19:14 32.730594 -117.177568 288 89ft 136kts
19-Dec-20 19:15 32.734063 -117.195225 244 26ft 0kts
19-Dec-20 19:16 32.734062 -117.195227 244 26ft 0kts
19-Dec-20 19:17 32.733714 -117.199786 208 26ft 6kts

Navigation Log

Ident Type
Flight plan parsing failed, navigation log unavailable